createdAt,value
2022-10-11T00:01:32.130Z,101407.81
2022-10-11T00:04:02.423Z,101396.22
2022-10-11T00:06:32.967Z,101387.88
2022-10-11T00:09:03.907Z,101382.50
2022-10-11T00:11:34.510Z,101398.66
2022-10-11T00:14:05.178Z,101414.59
2022-10-11T00:16:35.780Z,101424.09
2022-10-11T00:19:06.185Z,101445.75
2022-10-11T00:21:37.919Z,101449.75
2022-10-11T00:24:09.252Z,101438.63
2022-10-11T00:26:43.184Z,101433.31
2022-10-11T00:29:16.543Z,101421.88
2022-10-11T00:31:46.708Z,101431.94
2022-10-11T00:34:19.179Z,101429.97
2022-10-11T00:36:49.396Z,101423.84
2022-10-11T00:39:19.839Z,101411.63
2022-10-11T00:41:50.540Z,101409.31
2022-10-11T00:44:26.042Z,101405.66
2022-10-11T00:47:11.879Z,101393.53
2022-10-11T00:49:55.501Z,101411.19
2022-10-11T00:52:39.096Z,101403.34
2022-10-11T00:55:13.879Z,101402.16
2022-10-11T00:57:48.086Z,101409.19
2022-10-11T01:00:19.059Z,101405.00
2022-10-11T01:02:49.531Z,101423.78
2022-10-11T01:05:35.511Z,101422.22
2022-10-11T01:08:06.163Z,101419.88
2022-10-11T01:10:37.016Z,101423.56
2022-10-11T01:13:25.246Z,101432.69
2022-10-11T01:16:16.185Z,101429.19
2022-10-11T01:19:04.659Z,101420.72
2022-10-11T01:21:35.028Z,101428.59
2022-10-11T01:24:27.919Z,101420.59
2022-10-11T01:27:28.695Z,101427.69
2022-10-11T01:30:24.752Z,101400.97
2022-10-11T01:33:13.529Z,101400.66
2022-10-11T01:36:12.711Z,101407.84
2022-10-11T01:38:54.903Z,101407.22
2022-10-11T01:41:32.209Z,101400.94
2022-10-11T01:44:04.607Z,101397.25
2022-10-11T01:46:35.816Z,101395.53
2022-10-11T01:49:06.856Z,101405.59
2022-10-11T01:51:47.155Z,101412.97
2022-10-11T01:55:07.569Z,101388.59
2022-10-11T01:57:50.019Z,101387.97
2022-10-11T02:00:37.712Z,101403.59
2022-10-11T02:03:14.910Z,101410.41
2022-10-11T02:06:26.194Z,101410.69
2022-10-11T02:09:03.279Z,101407.72
2022-10-11T02:11:37.912Z,101428.94
2022-10-11T02:14:24.408Z,101421.63
2022-10-11T02:17:10.355Z,101432.38
2022-10-11T02:19:45.827Z,101436.19
2022-10-11T02:22:30.978Z,101425.81
2022-10-11T02:25:03.184Z,101437.00
2022-10-11T02:27:38.227Z,101436.88
2022-10-11T02:30:10.761Z,101424.34
2022-10-11T02:32:43.533Z,101410.13
2022-10-11T02:35:14.153Z,101396.72
2022-10-11T02:37:50.486Z,101381.25
2022-10-11T02:40:39.354Z,101360.53
2022-10-11T02:43:37.279Z,101343.34
2022-10-11T02:46:08.749Z,101348.91
2022-10-11T02:48:40.851Z,101347.88
2022-10-11T02:51:15.571Z,101350.75
2022-10-11T02:53:46.065Z,101354.78
2022-10-11T02:56:16.071Z,101328.38
2022-10-11T02:58:46.470Z,101314.59
2022-10-11T03:01:17.083Z,101309.75
2022-10-11T03:03:47.465Z,101315.00
2022-10-11T03:06:17.491Z,101305.03
2022-10-11T03:08:47.908Z,101289.63
2022-10-11T03:11:18.846Z,101281.22
2022-10-11T03:13:48.827Z,101252.38
2022-10-11T03:16:19.362Z,101244.16
2022-10-11T03:18:52.919Z,101244.78
2022-10-11T03:21:23.450Z,101233.19
2022-10-11T03:23:53.571Z,101216.47
2022-10-11T03:26:23.664Z,101215.84
2022-10-11T03:28:53.699Z,101193.66
2022-10-11T03:31:25.078Z,101190.03
2022-10-11T03:33:55.153Z,101184.63
2022-10-11T03:36:25.133Z,101190.78
2022-10-11T03:38:54.867Z,101166.06
2022-10-11T03:41:27.804Z,101165.94
2022-10-11T03:43:58.450Z,101147.44
2022-10-11T03:46:28.509Z,101138.91
2022-10-11T03:48:59.443Z,101138.56
2022-10-11T03:51:29.797Z,101126.88
2022-10-11T03:54:00.245Z,101119.47
2022-10-11T03:56:30.033Z,101119.91
2022-10-11T03:59:00.539Z,101124.66
2022-10-11T04:01:31.839Z,101114.25
2022-10-11T04:04:02.389Z,101089.16
2022-10-11T04:06:32.910Z,101066.88
2022-10-11T04:09:03.538Z,101068.03
2022-10-11T04:11:36.100Z,101058.22
2022-10-11T04:14:06.617Z,101059.84
2022-10-11T04:16:39.915Z,101061.41
2022-10-11T04:19:10.772Z,101046.31
2022-10-11T04:21:40.792Z,101041.56
2022-10-11T04:24:13.255Z,101009.94
2022-10-11T04:26:43.293Z,101005.47
2022-10-11T04:29:13.325Z,101017.38
2022-10-11T04:31:43.271Z,101028.19
2022-10-11T04:34:13.011Z,101021.03
2022-10-11T04:36:46.329Z,101009.97
2022-10-11T04:39:19.834Z,101015.69
2022-10-11T04:41:49.910Z,101004.28
2022-10-11T04:44:19.643Z,101001.31
2022-10-11T04:46:49.695Z,101021.66
2022-10-11T04:49:19.620Z,101028.00
2022-10-11T04:51:49.367Z,101012.59
2022-10-11T04:54:19.383Z,100991.00
2022-10-11T04:56:49.289Z,100988.88
2022-10-11T04:59:19.014Z,100978.28
2022-10-11T05:01:49.173Z,100975.38
2022-10-11T05:04:19.796Z,100962.75
2022-10-11T05:06:49.899Z,100952.75
2022-10-11T05:09:19.970Z,100953.28
2022-10-11T05:11:52.712Z,100941.03
2022-10-11T05:14:23.205Z,100945.59
2022-10-11T05:16:53.020Z,100950.69
2022-10-11T05:19:23.066Z,100954.81
2022-10-11T05:21:52.843Z,100941.47
2022-10-11T05:24:23.230Z,100940.81
2022-10-11T05:26:53.655Z,100936.91
2022-10-11T05:29:23.703Z,100960.22
2022-10-11T05:31:54.256Z,100975.41
2022-10-11T05:34:24.162Z,100953.78
2022-10-11T05:36:54.658Z,100959.84
2022-10-11T05:39:25.252Z,100977.06
2022-10-11T05:41:55.724Z,100965.50
2022-10-11T05:44:25.906Z,100968.00
2022-10-11T05:46:56.314Z,100966.25
2022-10-11T05:49:26.385Z,100968.91
2022-10-11T05:51:56.853Z,100969.66
2022-10-11T05:54:27.000Z,100987.09
2022-10-11T05:56:57.445Z,100969.78
2022-10-11T05:59:27.475Z,100958.25
2022-10-11T06:01:57.410Z,100949.91
2022-10-11T06:04:27.490Z,100946.50
2022-10-11T06:06:57.946Z,100943.31
2022-10-11T06:09:28.020Z,100946.78
2022-10-11T06:12:01.980Z,100941.38
2022-10-11T06:14:32.090Z,100936.22
2022-10-11T06:17:02.491Z,100921.38
2022-10-11T06:19:32.606Z,100910.75
2022-10-11T06:22:03.446Z,100918.47
2022-10-11T06:24:33.004Z,100914.06
2022-10-11T06:27:02.788Z,100909.63
2022-10-11T06:29:33.214Z,100896.63
2022-10-11T06:32:03.668Z,100891.25
2022-10-11T06:34:34.102Z,100888.81
2022-10-11T06:37:03.858Z,100881.16
2022-10-11T06:39:33.967Z,100876.69
2022-10-11T06:42:04.110Z,100873.03
2022-10-11T06:44:34.657Z,100871.81
2022-10-11T06:47:04.918Z,100870.31
2022-10-11T06:49:35.938Z,100870.28
2022-10-11T06:52:06.803Z,100858.53
2022-10-11T06:54:42.492Z,100855.84
2022-10-11T06:57:15.024Z,100848.25
2022-10-11T06:59:45.518Z,100847.72
2022-10-11T07:02:15.598Z,100843.75
2022-10-11T07:04:46.099Z,100846.50
2022-10-11T07:07:16.320Z,100835.19
2022-10-11T07:09:46.974Z,100846.97
2022-10-11T07:12:17.556Z,100852.16
2022-10-11T07:14:52.219Z,100859.00
2022-10-11T07:17:22.233Z,100854.09
2022-10-11T07:19:52.153Z,100842.84
2022-10-11T07:22:22.761Z,100838.13
2022-10-11T07:24:52.818Z,100843.81
2022-10-11T07:27:24.931Z,100849.91
2022-10-11T07:29:54.984Z,100843.00
2022-10-11T07:32:25.402Z,100846.22
2022-10-11T07:34:55.512Z,100845.72
2022-10-11T07:37:25.929Z,100854.63
2022-10-11T07:39:55.989Z,100855.09
2022-10-11T07:42:26.435Z,100862.47
2022-10-11T07:44:56.628Z,100863.13
2022-10-11T07:47:30.247Z,100853.38
2022-10-11T07:50:00.686Z,100866.19
2022-10-11T07:53:20.242Z,100868.63
2022-10-11T07:55:50.451Z,100852.16
2022-10-11T07:58:20.915Z,100861.75
2022-10-11T08:00:55.739Z,100854.31
2022-10-11T08:03:26.204Z,100850.59
2022-10-11T08:06:03.096Z,100853.56
2022-10-11T08:08:34.071Z,100854.47
2022-10-11T08:11:04.206Z,100843.19
2022-10-11T08:14:14.118Z,100855.38
2022-10-11T08:16:44.627Z,100864.41
2022-10-11T08:19:14.737Z,100856.75
2022-10-11T08:21:45.211Z,100838.53
2022-10-11T08:24:15.200Z,100831.69
2022-10-11T08:26:45.694Z,100852.88
2022-10-11T08:29:15.759Z,100854.00
2022-10-11T08:31:46.563Z,100849.94
2022-10-11T08:34:19.528Z,100860.25
2022-10-11T08:36:50.013Z,100863.34
2022-10-11T08:39:21.096Z,100864.84
2022-10-11T08:42:00.694Z,100860.63
2022-10-11T08:45:09.655Z,100858.13
2022-10-11T08:47:37.566Z,100866.59
2022-10-11T08:50:16.715Z,100864.16
2022-10-11T08:52:54.592Z,100849.19
2022-10-11T08:55:40.413Z,100861.47
2022-10-11T08:58:16.546Z,100875.25
2022-10-11T09:00:49.807Z,100874.28
2022-10-11T09:03:28.792Z,100892.22
2022-10-11T09:06:01.314Z,100891.22
2022-10-11T09:08:50.274Z,100892.72
2022-10-11T09:11:32.812Z,100887.31
2022-10-11T09:14:24.838Z,100896.16
2022-10-11T09:17:23.327Z,100891.00
2022-10-11T09:20:19.602Z,100897.13
2022-10-11T09:23:24.308Z,100900.56
2022-10-11T09:26:01.577Z,100903.28
2022-10-11T09:29:01.417Z,100899.34
2022-10-11T09:31:33.450Z,100911.16
2022-10-11T09:34:13.621Z,100926.88
2022-10-11T09:36:51.785Z,100915.59
2022-10-11T09:39:35.322Z,100916.53
2022-10-11T09:42:11.353Z,100923.94
2022-10-11T09:44:47.059Z,100930.84
2022-10-11T09:47:34.118Z,100930.81
2022-10-11T09:50:10.354Z,100931.78
2022-10-11T09:53:04.584Z,100939.44
2022-10-11T09:55:51.456Z,100946.31
2022-10-11T09:58:41.413Z,100951.69
2022-10-11T10:01:15.141Z,100961.56
2022-10-11T10:03:46.098Z,100965.03
2022-10-11T10:06:25.289Z,100973.84
2022-10-11T10:08:56.962Z,100967.22
2022-10-11T10:11:26.933Z,100969.19
2022-10-11T10:13:57.372Z,100983.47
2022-10-11T10:16:35.110Z,100987.16
2022-10-11T10:19:08.962Z,100982.69
2022-10-11T10:21:46.968Z,100985.09
2022-10-11T10:24:35.675Z,100994.47
2022-10-11T10:27:18.176Z,101004.09
2022-10-11T10:30:17.780Z,101006.78
2022-10-11T10:33:14.029Z,100996.19
2022-10-11T10:35:53.055Z,100997.66
2022-10-11T10:38:30.810Z,101004.56
2022-10-11T10:41:10.538Z,101003.78
2022-10-11T10:43:43.005Z,101008.25
2022-10-11T10:46:19.407Z,101005.53
2022-10-11T10:51:50.506Z,101007.59
2022-10-11T10:54:30.747Z,101006.63
2022-10-11T10:57:05.609Z,101010.31
2022-10-11T11:00:02.495Z,101005.59
2022-10-11T11:02:45.802Z,101009.91
2022-10-11T11:05:41.853Z,100998.81
2022-10-11T11:08:40.368Z,101002.03
2022-10-11T11:11:39.216Z,101009.13
2022-10-11T11:14:14.868Z,101005.69
2022-10-11T11:16:54.841Z,101013.00
2022-10-11T11:19:54.658Z,100996.34
2022-10-11T11:22:53.983Z,100999.50
2022-10-11T11:25:44.825Z,101004.22
2022-10-11T11:28:31.055Z,101007.09
2022-10-11T11:31:19.944Z,101003.31
2022-10-11T11:34:10.966Z,101009.94
2022-10-11T11:36:44.352Z,101011.47
2022-10-11T11:39:27.535Z,101023.09
2022-10-11T11:42:06.931Z,101026.13
2022-10-11T11:44:41.554Z,101036.06
2022-10-11T11:47:19.231Z,101043.22
2022-10-11T11:50:01.543Z,101031.41
2022-10-11T11:52:38.806Z,101032.84
2022-10-11T11:55:11.784Z,101027.88
2022-10-11T11:58:04.592Z,101031.59
2022-10-11T12:01:16.198Z,101025.19
2022-10-11T12:03:51.711Z,101018.47
2022-10-11T12:06:23.937Z,101014.44
2022-10-11T12:09:03.148Z,101007.75
2022-10-11T12:11:42.137Z,101003.00
2022-10-11T12:14:28.582Z,101016.88
2022-10-11T12:17:17.363Z,101025.69
2022-10-11T12:20:30.539Z,101012.19
2022-10-11T12:23:24.583Z,101009.06
2022-10-11T12:26:19.384Z,101012.06
2022-10-11T12:29:08.744Z,100996.06
2022-10-11T12:31:42.483Z,101009.88
2022-10-11T12:34:35.586Z,101012.09
2022-10-11T12:37:23.303Z,101027.19
2022-10-11T12:39:56.920Z,101018.47
2022-10-11T12:42:33.493Z,100994.31
2022-10-11T12:45:15.828Z,100984.69
2022-10-11T12:47:57.670Z,100974.25
2022-10-11T12:51:02.827Z,100955.59
2022-10-11T12:54:36.873Z,100961.53
2022-10-11T12:57:12.325Z,100961.16
2022-10-11T12:59:46.826Z,100950.06
2022-10-11T13:02:45.817Z,100948.69
2022-10-11T13:05:31.720Z,100958.09
2022-10-11T13:08:06.229Z,100950.44
2022-10-11T13:10:46.561Z,100953.44
2022-10-11T13:13:28.643Z,100950.50
2022-10-11T13:16:04.829Z,100942.69
2022-10-11T13:18:35.074Z,100946.31
2022-10-11T13:21:21.543Z,100944.88
2022-10-11T13:23:59.438Z,100954.81
2022-10-11T13:26:34.143Z,100941.44
2022-10-11T13:29:04.199Z,100927.69
2022-10-11T13:31:35.098Z,100932.81
2022-10-11T13:34:05.610Z,100916.56
2022-10-11T13:36:35.815Z,100918.00
2022-10-11T13:39:06.367Z,100909.81
2022-10-11T13:41:36.611Z,100908.88
2022-10-11T13:44:07.185Z,100910.91
2022-10-11T13:46:41.636Z,100939.69
2022-10-11T13:49:38.687Z,100914.38
2022-10-11T13:52:21.505Z,100948.34
2022-10-11T13:55:02.358Z,100946.47
2022-10-11T13:57:32.286Z,100945.69
2022-10-11T14:00:03.764Z,100940.47
2022-10-11T14:02:47.701Z,100923.31
2022-10-11T14:05:26.685Z,100914.84
2022-10-11T14:07:59.314Z,100904.50
2022-10-11T14:10:30.711Z,100905.63
2022-10-11T14:13:04.312Z,100899.69
2022-10-11T14:15:39.297Z,100884.34
2022-10-11T14:18:42.796Z,100875.88
2022-10-11T14:21:22.020Z,100872.72
2022-10-11T14:23:56.701Z,100871.78
2022-10-11T14:26:28.014Z,100870.22
2022-10-11T14:29:01.285Z,100860.56
2022-10-11T14:31:32.344Z,100870.28
2022-10-11T14:34:02.865Z,100880.88
2022-10-11T14:36:33.047Z,100879.59
2022-10-11T14:39:03.410Z,100886.72
2022-10-11T14:41:32.915Z,100880.47
2022-10-11T14:44:02.655Z,100888.41
2022-10-11T14:46:33.107Z,100889.91
2022-10-11T14:49:03.547Z,100881.16
2022-10-11T14:51:36.074Z,100890.66
2022-10-11T14:54:06.250Z,100877.41
2022-10-11T14:56:36.665Z,100901.50
2022-10-11T14:59:06.958Z,100900.38
2022-10-11T15:01:37.277Z,100901.56
2022-10-11T15:04:07.426Z,100871.06
2022-10-11T15:06:40.417Z,100880.53
2022-10-11T15:09:10.604Z,100866.56
2022-10-11T15:11:41.111Z,100864.31
2022-10-11T15:14:11.649Z,100843.50
2022-10-11T15:16:42.758Z,100817.06
2022-10-11T15:19:24.751Z,100817.25
2022-10-11T15:21:58.031Z,100800.69
2022-10-11T15:24:29.099Z,100813.72
2022-10-11T15:26:59.633Z,100815.03
2022-10-11T15:29:29.722Z,100817.72
2022-10-11T15:32:00.240Z,100818.34
2022-10-11T15:34:30.334Z,100826.91
2022-10-11T15:37:00.930Z,100835.47
2022-10-11T15:39:34.988Z,100829.97
2022-10-11T15:42:05.468Z,100829.19
2022-10-11T15:44:35.490Z,100818.34
2022-10-11T15:47:06.001Z,100805.38
2022-10-11T15:49:36.528Z,100769.47
2022-10-11T15:52:10.450Z,100725.03
2022-10-11T15:54:40.735Z,100709.22
2022-10-11T15:57:11.791Z,100697.63
2022-10-11T15:59:41.902Z,100670.97
2022-10-11T16:02:16.459Z,100618.81
2022-10-11T16:04:47.668Z,100589.22
2022-10-11T16:07:18.071Z,100569.94
2022-10-11T16:09:48.072Z,100607.44
2022-10-11T16:12:18.683Z,100629.19
2022-10-11T16:14:48.757Z,100629.56
2022-10-11T16:17:19.184Z,100657.19
2022-10-11T16:19:49.073Z,100677.50
2022-10-11T16:22:19.644Z,100690.59
2022-10-11T16:24:49.659Z,100704.78
2022-10-11T16:27:20.323Z,100721.19
2022-10-11T16:29:52.404Z,100733.31
2022-10-11T16:32:24.384Z,100753.59
2022-10-11T16:34:54.457Z,100770.59
2022-10-11T16:37:25.129Z,100768.69
2022-10-11T16:40:00.414Z,100776.41
2022-10-11T16:42:30.889Z,100776.88
2022-10-11T16:45:01.683Z,100762.00
2022-10-11T16:47:32.802Z,100750.81
2022-10-11T16:50:03.236Z,100754.50
2022-10-11T16:52:33.680Z,100753.22
2022-10-11T16:55:03.688Z,100734.16
2022-10-11T16:57:34.558Z,100711.28
2022-10-11T17:00:04.178Z,100719.59
2022-10-11T17:02:36.971Z,100708.69
2022-10-11T17:05:07.758Z,100717.97
2022-10-11T17:07:38.029Z,100722.75
2022-10-11T17:10:09.132Z,100725.84
2022-10-11T17:12:39.789Z,100710.78
2022-10-11T17:15:13.261Z,100715.63
2022-10-11T17:17:43.249Z,100708.03
2022-10-11T17:20:13.148Z,100702.03
2022-10-11T17:22:43.641Z,100698.13
2022-10-11T17:25:14.625Z,100694.56
2022-10-11T17:27:44.989Z,100674.16
2022-10-11T17:30:24.652Z,100689.09
2022-10-11T17:32:55.215Z,100692.97
2022-10-11T17:35:25.014Z,100681.97
2022-10-11T17:37:55.422Z,100706.22
2022-10-11T17:40:25.046Z,100720.19
2022-10-11T17:42:54.818Z,100735.75
2022-10-11T17:45:25.305Z,100737.72
2022-10-11T17:47:54.828Z,100737.31
2022-10-11T17:50:24.658Z,100746.38
2022-10-11T17:52:55.213Z,100748.72
2022-10-11T17:55:25.495Z,100743.56
2022-10-11T17:57:58.685Z,100755.31
2022-10-11T18:00:28.724Z,100747.41
2022-10-11T18:02:59.150Z,100756.94
2022-10-11T18:05:32.423Z,100744.97
2022-10-11T18:08:02.965Z,100739.97
2022-10-11T18:10:34.282Z,100737.03
2022-10-11T18:13:06.904Z,100738.91
2022-10-11T18:15:37.402Z,100738.06
2022-10-11T18:18:08.338Z,100735.19
2022-10-11T18:20:38.518Z,100723.66
2022-10-11T18:23:08.938Z,100728.38
2022-10-11T18:25:38.982Z,100713.13
2022-10-11T18:28:09.519Z,100734.25
2022-10-11T18:30:47.107Z,100743.56
2022-10-11T18:33:17.975Z,100724.69
2022-10-11T18:35:48.193Z,100736.06
2022-10-11T18:38:18.692Z,100742.31
2022-10-11T18:40:48.237Z,100742.84
2022-10-11T18:43:17.965Z,100758.22
2022-10-11T18:45:48.588Z,100751.81
2022-10-11T18:48:18.078Z,100749.00
2022-10-11T18:50:47.785Z,100749.44
2022-10-11T18:53:18.333Z,100748.41
2022-10-11T18:55:48.881Z,100742.66
2022-10-11T18:58:22.729Z,100739.19
2022-10-11T19:00:53.217Z,100738.13
2022-10-11T19:03:24.971Z,100740.97
2022-10-11T19:05:55.240Z,100745.25
2022-10-11T19:08:25.946Z,100744.41
2022-10-11T19:10:56.489Z,100738.97
2022-10-11T19:13:27.687Z,100746.94
2022-10-11T19:15:57.935Z,100743.13
2022-10-11T19:18:28.630Z,100751.81
2022-10-11T19:21:06.543Z,100746.50
2022-10-11T19:23:42.455Z,100755.53
2022-10-11T19:26:28.138Z,100765.88
2022-10-11T19:29:04.365Z,100771.00
2022-10-11T19:31:36.605Z,100773.50
2022-10-11T19:34:07.911Z,100772.66
2022-10-11T19:36:38.884Z,100777.69
2022-10-11T19:39:14.614Z,100775.41
2022-10-11T19:41:45.391Z,100784.19
2022-10-11T19:44:16.611Z,100782.22
2022-10-11T19:46:53.615Z,100767.00
2022-10-11T19:49:26.081Z,100752.91
2022-10-11T19:51:56.406Z,100696.50
2022-10-11T19:54:26.854Z,100654.75
2022-10-11T19:56:56.871Z,100608.22
2022-10-11T19:59:29.158Z,100575.38
2022-10-11T20:01:59.124Z,100552.97
2022-10-11T20:07:19.407Z,100448.66
2022-10-11T20:09:49.440Z,100456.38
2022-10-11T20:12:19.816Z,100464.63
2022-10-11T20:14:49.816Z,100490.66
2022-10-11T20:17:22.941Z,100524.94
2022-10-11T20:19:53.936Z,100516.81
2022-10-11T20:22:24.329Z,100526.13
2022-10-11T20:24:54.311Z,100523.00
2022-10-11T20:27:24.716Z,100527.38
2022-10-11T20:29:54.729Z,100513.97
2022-10-11T20:32:25.137Z,100518.84
2022-10-11T20:34:54.970Z,100527.84
2022-10-11T20:37:25.299Z,100531.91
2022-10-11T20:39:55.548Z,100551.06
2022-10-11T20:42:29.770Z,100548.22
2022-10-11T20:45:02.710Z,100573.09
2022-10-11T20:47:33.359Z,100554.25
2022-10-11T20:50:03.564Z,100574.44
2022-10-11T20:52:34.328Z,100557.16
2022-10-11T20:55:05.363Z,100533.63
2022-10-11T20:57:35.963Z,100514.84
2022-10-11T21:00:07.002Z,100497.97
2022-10-11T21:02:37.374Z,100493.59
2022-10-11T21:05:08.255Z,100486.38
2022-10-11T21:07:38.632Z,100500.34
2022-10-11T21:10:08.888Z,100530.44
2022-10-11T21:12:39.258Z,100534.31
2022-10-11T21:15:09.470Z,100536.13
2022-10-11T21:17:39.815Z,100509.44
2022-10-11T21:20:10.303Z,100486.00
2022-10-11T21:22:41.558Z,100497.03
2022-10-11T21:25:11.692Z,100518.78
2022-10-11T21:27:42.119Z,100496.88
2022-10-11T21:30:12.245Z,100501.22
2022-10-11T21:32:42.587Z,100481.34
2022-10-11T21:35:12.680Z,100479.41
2022-10-11T21:37:43.094Z,100487.47
2022-10-11T21:40:12.989Z,100499.28
2022-10-11T21:42:43.419Z,100491.38
2022-10-11T21:45:13.403Z,100500.59
2022-10-11T21:47:45.507Z,100504.34
2022-10-11T21:50:15.604Z,100512.28
2022-10-11T21:52:45.925Z,100518.00
2022-10-11T21:55:15.990Z,100528.91
2022-10-11T21:57:46.405Z,100539.38
2022-10-11T22:00:16.386Z,100548.38
2022-10-11T22:02:46.864Z,100548.38
2022-10-11T22:05:16.856Z,100571.53
2022-10-11T22:07:47.188Z,100595.69
2022-10-11T22:10:17.089Z,100592.44
2022-10-11T22:12:47.896Z,100585.84
2022-10-11T22:15:17.375Z,100609.66
2022-10-11T22:17:48.191Z,100635.94
2022-10-11T22:20:18.218Z,100643.00
2022-10-11T22:22:48.006Z,100650.88
2022-10-11T22:25:18.456Z,100656.13
2022-10-11T22:27:48.479Z,100649.56
2022-10-11T22:30:18.903Z,100643.47
2022-10-11T22:32:48.949Z,100634.47
2022-10-11T22:35:19.575Z,100644.09
2022-10-11T22:37:51.450Z,100648.69
2022-10-11T22:40:23.090Z,100643.31
2022-10-11T22:42:53.090Z,100662.78
2022-10-11T22:45:22.954Z,100682.13
2022-10-11T22:47:53.459Z,100677.72
2022-10-11T22:50:23.482Z,100679.00
2022-10-11T22:52:53.912Z,100671.44
2022-10-11T22:55:24.104Z,100673.22
2022-10-11T22:57:54.971Z,100682.28
2022-10-11T23:00:25.038Z,100686.53
2022-10-11T23:02:55.462Z,100686.44
2022-10-11T23:05:25.662Z,100672.00
2022-10-11T23:07:56.168Z,100691.38
2022-10-11T23:10:26.048Z,100713.69
2022-10-11T23:12:56.476Z,100703.84
2022-10-11T23:15:26.571Z,100704.09
2022-10-11T23:17:57.038Z,100709.84
2022-10-11T23:20:27.041Z,100722.28
2022-10-11T23:22:57.485Z,100726.50
2022-10-11T23:25:30.391Z,100727.31
2022-10-11T23:28:04.172Z,100727.88
2022-10-11T23:30:34.299Z,100725.75
2022-10-11T23:33:04.845Z,100716.31
2022-10-11T23:35:36.385Z,100726.97
2022-10-11T23:38:07.556Z,100744.38
2022-10-11T23:40:37.806Z,100743.03
2022-10-11T23:43:08.236Z,100741.59
2022-10-11T23:45:38.131Z,100753.59
2022-10-11T23:48:08.649Z,100744.78
2022-10-11T23:50:38.202Z,100745.53
2022-10-11T23:53:07.887Z,100753.72
2022-10-11T23:55:38.330Z,100755.94
2022-10-11T23:58:08.334Z,100761.38
